sensor_id;sensor_type;location;lat;lon;timestamp;temperature;humidity
57218;DHT22;43078;52.972;6.482;2022-11-11T00:01:00;12.00;99.90
57218;DHT22;43078;52.972;6.482;2022-11-11T00:03:26;12.00;99.90
57218;DHT22;43078;52.972;6.482;2022-11-11T00:05:52;12.00;99.90
57218;DHT22;43078;52.972;6.482;2022-11-11T00:08:20;12.00;99.90
57218;DHT22;43078;52.972;6.482;2022-11-11T00:10:45;12.00;99.90
57218;DHT22;43078;52.972;6.482;2022-11-11T00:13:11;12.00;99.90
57218;DHT22;43078;52.972;6.482;2022-11-11T00:15:37;12.00;99.90
57218;DHT22;43078;52.972;6.482;2022-11-11T00:18:04;12.00;99.90
57218;DHT22;43078;52.972;6.482;2022-11-11T00:20:49;12.00;99.90
57218;DHT22;43078;52.972;6.482;2022-11-11T00:23:43;12.00;99.90
57218;DHT22;43078;52.972;6.482;2022-11-11T00:26:28;12.00;99.90
57218;DHT22;43078;52.972;6.482;2022-11-11T00:28:53;12.00;99.90
57218;DHT22;43078;52.972;6.482;2022-11-11T00:31:21;12.00;99.90
57218;DHT22;43078;52.972;6.482;2022-11-11T00:33:47;12.00;99.90
57218;DHT22;43078;52.972;6.482;2022-11-11T00:36:13;12.10;99.90
57218;DHT22;43078;52.972;6.482;2022-11-11T00:38:40;12.10;99.90
57218;DHT22;43078;52.972;6.482;2022-11-11T00:41:14;12.10;99.90
57218;DHT22;43078;52.972;6.482;2022-11-11T00:43:41;12.10;99.90
57218;DHT22;43078;52.972;6.482;2022-11-11T00:46:07;12.10;99.90
57218;DHT22;43078;52.972;6.482;2022-11-11T00:48:51;12.10;99.90
57218;DHT22;43078;52.972;6.482;2022-11-11T00:51:55;12.10;99.90
57218;DHT22;43078;52.972;6.482;2022-11-11T00:54:21;12.00;99.90
57218;DHT22;43078;52.972;6.482;2022-11-11T00:56:46;12.10;99.90
57218;DHT22;43078;52.972;6.482;2022-11-11T00:59:12;12.10;99.90
57218;DHT22;43078;52.972;6.482;2022-11-11T01:01:37;12.10;99.90
57218;DHT22;43078;52.972;6.482;2022-11-11T01:04:04;12.10;99.90
57218;DHT22;43078;52.972;6.482;2022-11-11T01:06:30;12.10;99.90
57218;DHT22;43078;52.972;6.482;2022-11-11T01:08:56;12.10;99.90
57218;DHT22;43078;52.972;6.482;2022-11-11T01:11:22;12.10;99.90
57218;DHT22;43078;52.972;6.482;2022-11-11T01:13:49;12.00;99.90
57218;DHT22;43078;52.972;6.482;2022-11-11T01:16:20;12.00;99.90
57218;DHT22;43078;52.972;6.482;2022-11-11T01:18:46;12.00;99.90
57218;DHT22;43078;52.972;6.482;2022-11-11T01:21:20;12.00;99.90
57218;DHT22;43078;52.972;6.482;2022-11-11T01:23:47;12.00;99.90
57218;DHT22;43078;52.972;6.482;2022-11-11T01:28:44;12.00;99.90
57218;DHT22;43078;52.972;6.482;2022-11-11T01:31:14;12.00;99.90
57218;DHT22;43078;52.972;6.482;2022-11-11T01:33:40;12.00;99.90
57218;DHT22;43078;52.972;6.482;2022-11-11T01:36:09;12.00;99.90
57218;DHT22;43078;52.972;6.482;2022-11-11T01:38:36;11.90;99.90
57218;DHT22;43078;52.972;6.482;2022-11-11T01:41:02;11.90;99.90
57218;DHT22;43078;52.972;6.482;2022-11-11T01:43:48;11.90;99.90
57218;DHT22;43078;52.972;6.482;2022-11-11T01:49:08;11.90;99.90
57218;DHT22;43078;52.972;6.482;2022-11-11T01:51:52;11.90;99.90
57218;DHT22;43078;52.972;6.482;2022-11-11T01:54:49;11.90;99.90
57218;DHT22;43078;52.972;6.482;2022-11-11T01:57:33;11.90;99.90
57218;DHT22;43078;52.972;6.482;2022-11-11T02:00:08;11.80;99.90
57218;DHT22;43078;52.972;6.482;2022-11-11T02:02:40;11.90;99.90
57218;DHT22;43078;52.972;6.482;2022-11-11T02:05:10;11.80;99.90
57218;DHT22;43078;52.972;6.482;2022-11-11T02:07:56;11.80;99.90
57218;DHT22;43078;52.972;6.482;2022-11-11T02:10:24;11.80;99.90
57218;DHT22;43078;52.972;6.482;2022-11-11T02:12:50;11.80;99.90
57218;DHT22;43078;52.972;6.482;2022-11-11T02:15:36;11.70;99.90
57218;DHT22;43078;52.972;6.482;2022-11-11T02:18:02;11.70;99.90
57218;DHT22;43078;52.972;6.482;2022-11-11T02:20:31;11.70;99.90
57218;DHT22;43078;52.972;6.482;2022-11-11T02:25:38;11.70;99.90
57218;DHT22;43078;52.972;6.482;2022-11-11T02:28:06;11.60;99.90
57218;DHT22;43078;52.972;6.482;2022-11-11T02:30:32;11.60;99.90
57218;DHT22;43078;52.972;6.482;2022-11-11T02:32:58;11.60;99.90
57218;DHT22;43078;52.972;6.482;2022-11-11T02:35:32;11.60;99.90
57218;DHT22;43078;52.972;6.482;2022-11-11T02:37:58;11.60;99.90
57218;DHT22;43078;52.972;6.482;2022-11-11T02:40:40;11.50;99.90
57218;DHT22;43078;52.972;6.482;2022-11-11T02:43:24;11.60;99.90
57218;DHT22;43078;52.972;6.482;2022-11-11T02:45:50;11.50;99.90
57218;DHT22;43078;52.972;6.482;2022-11-11T02:48:15;11.50;99.90
57218;DHT22;43078;52.972;6.482;2022-11-11T02:50:41;11.50;99.90
57218;DHT22;43078;52.972;6.482;2022-11-11T02:53:06;11.50;99.90
57218;DHT22;43078;52.972;6.482;2022-11-11T02:55:32;11.50;99.90
57218;DHT22;43078;52.972;6.482;2022-11-11T02:57:58;11.50;99.90
57218;DHT22;43078;52.972;6.482;2022-11-11T03:00:23;11.50;99.90
57218;DHT22;43078;52.972;6.482;2022-11-11T03:02:49;11.50;99.90
57218;DHT22;43078;52.972;6.482;2022-11-11T03:05:14;11.50;99.90
57218;DHT22;43078;52.972;6.482;2022-11-11T03:07:40;11.50;99.90
57218;DHT22;43078;52.972;6.482;2022-11-11T03:10:06;11.50;99.90
57218;DHT22;43078;52.972;6.482;2022-11-11T03:12:32;11.50;99.90
57218;DHT22;43078;52.972;6.482;2022-11-11T03:14:57;11.50;99.90
57218;DHT22;43078;52.972;6.482;2022-11-11T03:17:23;11.50;99.90
57218;DHT22;43078;52.972;6.482;2022-11-11T03:20:09;11.50;99.90
57218;DHT22;43078;52.972;6.482;2022-11-11T03:23:08;11.40;99.90
57218;DHT22;43078;52.972;6.482;2022-11-11T03:25:52;11.40;99.90
57218;DHT22;43078;52.972;6.482;2022-11-11T03:28:19;11.40;99.90
57218;DHT22;43078;52.972;6.482;2022-11-11T03:30:47;11.40;99.90
57218;DHT22;43078;52.972;6.482;2022-11-11T03:33:14;11.40;99.90
57218;DHT22;43078;52.972;6.482;2022-11-11T03:35:40;11.40;99.90
57218;DHT22;43078;52.972;6.482;2022-11-11T03:38:08;11.40;99.90
57218;DHT22;43078;52.972;6.482;2022-11-11T03:40:41;11.40;99.90
57218;DHT22;43078;52.972;6.482;2022-11-11T03:43:07;11.40;99.90
57218;DHT22;43078;52.972;6.482;2022-11-11T03:45:33;11.40;99.90
57218;DHT22;43078;52.972;6.482;2022-11-11T03:47:59;11.50;99.90
57218;DHT22;43078;52.972;6.482;2022-11-11T03:50:24;11.40;99.90
57218;DHT22;43078;52.972;6.482;2022-11-11T03:52:50;11.40;99.90
57218;DHT22;43078;52.972;6.482;2022-11-11T03:55:15;11.40;99.90
57218;DHT22;43078;52.972;6.482;2022-11-11T03:57:43;11.40;99.90
57218;DHT22;43078;52.972;6.482;2022-11-11T04:00:14;11.40;99.90
57218;DHT22;43078;52.972;6.482;2022-11-11T04:02:40;11.40;99.90
57218;DHT22;43078;52.972;6.482;2022-11-11T04:05:24;11.40;99.90
57218;DHT22;43078;52.972;6.482;2022-11-11T04:08:11;11.40;99.90
57218;DHT22;43078;52.972;6.482;2022-11-11T04:10:57;11.40;99.90
57218;DHT22;43078;52.972;6.482;2022-11-11T04:13:24;11.40;99.90
57218;DHT22;43078;52.972;6.482;2022-11-11T04:16:09;11.40;99.90
57218;DHT22;43078;52.972;6.482;2022-11-11T04:18:35;11.40;99.90
57218;DHT22;43078;52.972;6.482;2022-11-11T04:21:21;11.40;99.90
57218;DHT22;43078;52.972;6.482;2022-11-11T04:24:06;11.40;99.90
57218;DHT22;43078;52.972;6.482;2022-11-11T04:26:50;11.40;99.90
57218;DHT22;43078;52.972;6.482;2022-11-11T04:29:17;11.40;99.90
57218;DHT22;43078;52.972;6.482;2022-11-11T04:34:48;11.40;99.90
57218;DHT22;43078;52.972;6.482;2022-11-11T04:37:15;11.40;99.90
57218;DHT22;43078;52.972;6.482;2022-11-11T04:39:41;11.40;99.90
57218;DHT22;43078;52.972;6.482;2022-11-11T04:42:27;11.40;99.90
57218;DHT22;43078;52.972;6.482;2022-11-11T04:44:53;11.40;99.90
57218;DHT22;43078;52.972;6.482;2022-11-11T04:47:42;11.40;99.90
57218;DHT22;43078;52.972;6.482;2022-11-11T04:50:16;11.40;99.90
57218;DHT22;43078;52.972;6.482;2022-11-11T04:52:42;11.40;99.90
57218;DHT22;43078;52.972;6.482;2022-11-11T04:55:07;11.40;99.90
57218;DHT22;43078;52.972;6.482;2022-11-11T04:57:51;11.40;99.90
57218;DHT22;43078;52.972;6.482;2022-11-11T05:00:18;11.40;99.90
57218;DHT22;43078;52.972;6.482;2022-11-11T05:02:44;11.40;99.90
57218;DHT22;43078;52.972;6.482;2022-11-11T05:05:29;11.40;99.90
57218;DHT22;43078;52.972;6.482;2022-11-11T05:08:15;11.40;99.90
57218;DHT22;43078;52.972;6.482;2022-11-11T05:10:59;11.40;99.90
57218;DHT22;43078;52.972;6.482;2022-11-11T05:13:25;11.30;99.90
57218;DHT22;43078;52.972;6.482;2022-11-11T05:16:27;11.40;99.90
57218;DHT22;43078;52.972;6.482;2022-11-11T05:19:13;11.40;99.90
57218;DHT22;43078;52.972;6.482;2022-11-11T05:22:25;11.30;99.90
57218;DHT22;43078;52.972;6.482;2022-11-11T05:24:50;11.30;99.90
57218;DHT22;43078;52.972;6.482;2022-11-11T05:27:34;11.30;99.90
57218;DHT22;43078;52.972;6.482;2022-11-11T05:30:00;11.30;99.90
57218;DHT22;43078;52.972;6.482;2022-11-11T05:32:26;11.40;99.90
57218;DHT22;43078;52.972;6.482;2022-11-11T05:34:52;11.40;99.90
57218;DHT22;43078;52.972;6.482;2022-11-11T05:37:18;11.40;99.90
57218;DHT22;43078;52.972;6.482;2022-11-11T05:39:44;11.40;99.90
57218;DHT22;43078;52.972;6.482;2022-11-11T05:42:10;11.40;99.90
57218;DHT22;43078;52.972;6.482;2022-11-11T05:44:36;11.40;99.90
57218;DHT22;43078;52.972;6.482;2022-11-11T05:47:01;11.40;99.90
57218;DHT22;43078;52.972;6.482;2022-11-11T05:49:27;11.40;99.90
57218;DHT22;43078;52.972;6.482;2022-11-11T05:51:53;11.40;99.90
57218;DHT22;43078;52.972;6.482;2022-11-11T05:54:20;11.40;99.90
57218;DHT22;43078;52.972;6.482;2022-11-11T05:56:45;11.40;99.90
57218;DHT22;43078;52.972;6.482;2022-11-11T05:59:11;11.50;99.90
57218;DHT22;43078;52.972;6.482;2022-11-11T06:01:37;11.40;99.90
57218;DHT22;43078;52.972;6.482;2022-11-11T06:04:04;11.40;99.90
57218;DHT22;43078;52.972;6.482;2022-11-11T06:06:30;11.40;99.90
57218;DHT22;43078;52.972;6.482;2022-11-11T06:08:56;11.40;99.90
57218;DHT22;43078;52.972;6.482;2022-11-11T06:11:22;11.40;99.90
57218;DHT22;43078;52.972;6.482;2022-11-11T06:13:48;11.40;99.90
57218;DHT22;43078;52.972;6.482;2022-11-11T06:16:13;11.40;99.90
57218;DHT22;43078;52.972;6.482;2022-11-11T06:18:39;11.40;99.90
57218;DHT22;43078;52.972;6.482;2022-11-11T06:21:05;11.40;99.90
57218;DHT22;43078;52.972;6.482;2022-11-11T06:23:31;11.40;99.90
57218;DHT22;43078;52.972;6.482;2022-11-11T06:25:57;11.40;99.90
57218;DHT22;43078;52.972;6.482;2022-11-11T06:28:43;11.40;99.90
57218;DHT22;43078;52.972;6.482;2022-11-11T06:31:11;11.40;99.90
57218;DHT22;43078;52.972;6.482;2022-11-11T06:33:37;11.40;99.90
57218;DHT22;43078;52.972;6.482;2022-11-11T06:36:04;11.40;99.90
57218;DHT22;43078;52.972;6.482;2022-11-11T06:38:30;11.40;99.90
57218;DHT22;43078;52.972;6.482;2022-11-11T06:40:56;11.40;99.90
57218;DHT22;43078;52.972;6.482;2022-11-11T06:43:22;11.40;99.90
57218;DHT22;43078;52.972;6.482;2022-11-11T06:45:51;11.40;99.90
57218;DHT22;43078;52.972;6.482;2022-11-11T06:48:18;11.40;99.90
57218;DHT22;43078;52.972;6.482;2022-11-11T06:50:43;11.40;99.90
57218;DHT22;43078;52.972;6.482;2022-11-11T06:53:11;11.40;99.90
57218;DHT22;43078;52.972;6.482;2022-11-11T06:55:37;11.40;99.90
57218;DHT22;43078;52.972;6.482;2022-11-11T06:58:08;11.40;99.90
57218;DHT22;43078;52.972;6.482;2022-11-11T07:00:34;11.40;99.90
57218;DHT22;43078;52.972;6.482;2022-11-11T07:03:02;11.40;99.90
57218;DHT22;43078;52.972;6.482;2022-11-11T07:05:28;11.40;99.90
57218;DHT22;43078;52.972;6.482;2022-11-11T07:07:53;11.40;99.90
57218;DHT22;43078;52.972;6.482;2022-11-11T07:10:20;11.40;99.90
57218;DHT22;43078;52.972;6.482;2022-11-11T07:12:45;11.40;99.90
57218;DHT22;43078;52.972;6.482;2022-11-11T07:15:12;11.40;99.90
57218;DHT22;43078;52.972;6.482;2022-11-11T07:17:37;11.40;99.90
57218;DHT22;43078;52.972;6.482;2022-11-11T07:20:03;11.40;99.90
57218;DHT22;43078;52.972;6.482;2022-11-11T07:22:29;11.40;99.90
57218;DHT22;43078;52.972;6.482;2022-11-11T07:24:55;11.40;99.90
57218;DHT22;43078;52.972;6.482;2022-11-11T07:27:20;11.40;99.90
57218;DHT22;43078;52.972;6.482;2022-11-11T07:29:46;11.40;99.90
57218;DHT22;43078;52.972;6.482;2022-11-11T07:32:14;11.40;99.90
57218;DHT22;43078;52.972;6.482;2022-11-11T07:34:41;11.40;99.90
57218;DHT22;43078;52.972;6.482;2022-11-11T07:37:07;11.40;99.90
57218;DHT22;43078;52.972;6.482;2022-11-11T07:39:33;11.40;99.90
57218;DHT22;43078;52.972;6.482;2022-11-11T07:41:58;11.40;99.90
57218;DHT22;43078;52.972;6.482;2022-11-11T07:44:25;11.40;99.90
57218;DHT22;43078;52.972;6.482;2022-11-11T07:46:51;11.40;99.90
57218;DHT22;43078;52.972;6.482;2022-11-11T07:49:16;11.40;99.90
57218;DHT22;43078;52.972;6.482;2022-11-11T07:51:42;11.40;99.90
57218;DHT22;43078;52.972;6.482;2022-11-11T07:54:08;11.40;99.90
57218;DHT22;43078;52.972;6.482;2022-11-11T07:56:33;11.40;99.90
57218;DHT22;43078;52.972;6.482;2022-11-11T07:58:59;11.40;99.90
57218;DHT22;43078;52.972;6.482;2022-11-11T08:01:24;11.40;99.90
57218;DHT22;43078;52.972;6.482;2022-11-11T08:03:50;11.40;99.90
57218;DHT22;43078;52.972;6.482;2022-11-11T08:06:18;11.40;99.90
57218;DHT22;43078;52.972;6.482;2022-11-11T08:08:44;11.40;99.90
57218;DHT22;43078;52.972;6.482;2022-11-11T08:11:10;11.40;99.90
57218;DHT22;43078;52.972;6.482;2022-11-11T08:13:36;11.40;99.90
57218;DHT22;43078;52.972;6.482;2022-11-11T08:16:15;11.40;99.90
57218;DHT22;43078;52.972;6.482;2022-11-11T08:18:41;11.40;99.90
57218;DHT22;43078;52.972;6.482;2022-11-11T08:21:06;11.40;99.90
57218;DHT22;43078;52.972;6.482;2022-11-11T08:23:32;11.40;99.90
57218;DHT22;43078;52.972;6.482;2022-11-11T08:25:59;11.50;99.90
57218;DHT22;43078;52.972;6.482;2022-11-11T08:28:25;11.50;99.90
57218;DHT22;43078;52.972;6.482;2022-11-11T08:30:51;11.50;99.90
57218;DHT22;43078;52.972;6.482;2022-11-11T08:33:17;11.50;99.90
57218;DHT22;43078;52.972;6.482;2022-11-11T08:35:42;11.50;99.90
57218;DHT22;43078;52.972;6.482;2022-11-11T08:38:08;11.50;99.90
57218;DHT22;43078;52.972;6.482;2022-11-11T08:40:34;11.50;99.90
57218;DHT22;43078;52.972;6.482;2022-11-11T08:42:59;11.50;99.90
57218;DHT22;43078;52.972;6.482;2022-11-11T08:45:25;11.60;99.90
57218;DHT22;43078;52.972;6.482;2022-11-11T08:47:51;11.60;99.90
57218;DHT22;43078;52.972;6.482;2022-11-11T08:50:17;11.60;99.90
57218;DHT22;43078;52.972;6.482;2022-11-11T08:52:50;11.60;99.90
57218;DHT22;43078;52.972;6.482;2022-11-11T08:55:16;11.60;99.90
57218;DHT22;43078;52.972;6.482;2022-11-11T08:57:42;11.50;99.90
57218;DHT22;43078;52.972;6.482;2022-11-11T09:00:08;11.60;99.90
57218;DHT22;43078;52.972;6.482;2022-11-11T09:02:34;11.60;99.90
57218;DHT22;43078;52.972;6.482;2022-11-11T09:05:00;11.60;99.90
57218;DHT22;43078;52.972;6.482;2022-11-11T09:07:26;11.60;99.90
57218;DHT22;43078;52.972;6.482;2022-11-11T09:09:52;11.60;99.90
57218;DHT22;43078;52.972;6.482;2022-11-11T09:12:18;11.60;99.90
57218;DHT22;43078;52.972;6.482;2022-11-11T09:14:44;11.60;99.90
57218;DHT22;43078;52.972;6.482;2022-11-11T09:17:09;11.60;99.90
57218;DHT22;43078;52.972;6.482;2022-11-11T09:19:35;11.60;99.90
57218;DHT22;43078;52.972;6.482;2022-11-11T09:22:01;11.70;99.90
57218;DHT22;43078;52.972;6.482;2022-11-11T09:24:26;11.60;99.90
57218;DHT22;43078;52.972;6.482;2022-11-11T09:26:52;11.60;99.90
57218;DHT22;43078;52.972;6.482;2022-11-11T09:29:18;11.60;99.90
57218;DHT22;43078;52.972;6.482;2022-11-11T09:31:45;11.70;99.90
57218;DHT22;43078;52.972;6.482;2022-11-11T09:34:10;11.70;99.90
57218;DHT22;43078;52.972;6.482;2022-11-11T09:36:36;11.70;99.90
57218;DHT22;43078;52.972;6.482;2022-11-11T09:39:02;11.70;99.90
57218;DHT22;43078;52.972;6.482;2022-11-11T09:41:35;11.70;99.90
57218;DHT22;43078;52.972;6.482;2022-11-11T09:44:02;11.70;99.90
57218;DHT22;43078;52.972;6.482;2022-11-11T09:46:53;11.70;99.90
57218;DHT22;43078;52.972;6.482;2022-11-11T09:52:53;11.70;99.90
57218;DHT22;43078;52.972;6.482;2022-11-11T09:56:09;11.70;99.90
57218;DHT22;43078;52.972;6.482;2022-11-11T09:58:46;11.70;99.90
57218;DHT22;43078;52.972;6.482;2022-11-11T10:01:28;11.70;99.90
57218;DHT22;43078;52.972;6.482;2022-11-11T10:06:40;11.80;99.90
57218;DHT22;43078;52.972;6.482;2022-11-11T10:14:32;11.80;99.90
57218;DHT22;43078;52.972;6.482;2022-11-11T10:17:06;11.80;99.90
57218;DHT22;43078;52.972;6.482;2022-11-11T10:22:32;11.80;99.90
57218;DHT22;43078;52.972;6.482;2022-11-11T10:27:33;11.90;99.90
57218;DHT22;43078;52.972;6.482;2022-11-11T10:30:07;11.90;99.90
57218;DHT22;43078;52.972;6.482;2022-11-11T10:32:38;11.90;99.90
57218;DHT22;43078;52.972;6.482;2022-11-11T10:37:39;11.90;99.90
57218;DHT22;43078;52.972;6.482;2022-11-11T10:42:42;11.90;99.90
57218;DHT22;43078;52.972;6.482;2022-11-11T10:48:12;12.00;99.90
57218;DHT22;43078;52.972;6.482;2022-11-11T10:50:42;12.00;99.90
57218;DHT22;43078;52.972;6.482;2022-11-11T10:58:29;12.00;99.90
57218;DHT22;43078;52.972;6.482;2022-11-11T11:00:59;12.00;99.90
57218;DHT22;43078;52.972;6.482;2022-11-11T11:03:33;12.00;99.90
57218;DHT22;43078;52.972;6.482;2022-11-11T11:08:38;12.10;99.90
57218;DHT22;43078;52.972;6.482;2022-11-11T11:11:09;12.10;99.90
57218;DHT22;43078;52.972;6.482;2022-11-11T11:13:52;12.20;99.90
57218;DHT22;43078;52.972;6.482;2022-11-11T11:16:32;12.20;99.90
57218;DHT22;43078;52.972;6.482;2022-11-11T11:24:27;12.20;99.90
57218;DHT22;43078;52.972;6.482;2022-11-11T11:26:56;12.30;99.90
57218;DHT22;43078;52.972;6.482;2022-11-11T11:29:32;12.30;99.90
57218;DHT22;43078;52.972;6.482;2022-11-11T11:32:17;12.30;99.90
57218;DHT22;43078;52.972;6.482;2022-11-11T11:34:50;12.30;99.90
57218;DHT22;43078;52.972;6.482;2022-11-11T11:37:16;12.30;99.90
57218;DHT22;43078;52.972;6.482;2022-11-11T11:39:43;12.30;99.90
57218;DHT22;43078;52.972;6.482;2022-11-11T11:42:13;12.40;99.90
57218;DHT22;43078;52.972;6.482;2022-11-11T11:44:51;12.40;99.90
57218;DHT22;43078;52.972;6.482;2022-11-11T11:50:35;12.40;99.90
57218;DHT22;43078;52.972;6.482;2022-11-11T11:56:12;12.40;99.90
57218;DHT22;43078;52.972;6.482;2022-11-11T11:59:00;12.40;99.90
57218;DHT22;43078;52.972;6.482;2022-11-11T12:07:48;12.40;99.90
57218;DHT22;43078;52.972;6.482;2022-11-11T12:13:16;12.40;99.90
57218;DHT22;43078;52.972;6.482;2022-11-11T12:18:39;12.40;99.90
57218;DHT22;43078;52.972;6.482;2022-11-11T12:21:13;12.50;99.90
57218;DHT22;43078;52.972;6.482;2022-11-11T12:24:03;12.40;99.90
57218;DHT22;43078;52.972;6.482;2022-11-11T12:26:44;12.40;99.90
57218;DHT22;43078;52.972;6.482;2022-11-11T12:35:04;12.40;99.90
57218;DHT22;43078;52.972;6.482;2022-11-11T12:45:47;12.40;99.90
57218;DHT22;43078;52.972;6.482;2022-11-11T13:05:16;12.30;99.90
57218;DHT22;43078;52.972;6.482;2022-11-11T13:08:40;12.30;99.90
57218;DHT22;43078;52.972;6.482;2022-11-11T13:15:55;12.30;99.90
57218;DHT22;43078;52.972;6.482;2022-11-11T13:18:44;12.30;99.90
57218;DHT22;43078;52.972;6.482;2022-11-11T13:24:03;12.30;99.90
57218;DHT22;43078;52.972;6.482;2022-11-11T13:26:36;12.30;99.90
57218;DHT22;43078;52.972;6.482;2022-11-11T13:32:10;12.30;99.90
57218;DHT22;43078;52.972;6.482;2022-11-11T13:34:39;12.30;99.90
57218;DHT22;43078;52.972;6.482;2022-11-11T13:37:07;12.30;99.90
57218;DHT22;43078;52.972;6.482;2022-11-11T13:39:43;12.40;99.90
57218;DHT22;43078;52.972;6.482;2022-11-11T13:42:14;12.40;99.90
57218;DHT22;43078;52.972;6.482;2022-11-11T13:44:50;12.40;99.90
57218;DHT22;43078;52.972;6.482;2022-11-11T13:47:26;12.40;99.90
57218;DHT22;43078;52.972;6.482;2022-11-11T13:49:57;12.40;99.90
57218;DHT22;43078;52.972;6.482;2022-11-11T13:52:33;12.40;99.90
57218;DHT22;43078;52.972;6.482;2022-11-11T13:55:07;12.50;99.90
57218;DHT22;43078;52.972;6.482;2022-11-11T13:57:33;12.50;99.90
57218;DHT22;43078;52.972;6.482;2022-11-11T14:02:41;12.50;99.90
57218;DHT22;43078;52.972;6.482;2022-11-11T14:05:14;12.50;99.90
57218;DHT22;43078;52.972;6.482;2022-11-11T14:18:03;12.50;99.90
57218;DHT22;43078;52.972;6.482;2022-11-11T14:20:33;12.60;99.90
57218;DHT22;43078;52.972;6.482;2022-11-11T14:25:43;12.60;99.90
57218;DHT22;43078;52.972;6.482;2022-11-11T14:28:28;12.60;99.90
57218;DHT22;43078;52.972;6.482;2022-11-11T14:30:57;12.60;99.90
57218;DHT22;43078;52.972;6.482;2022-11-11T14:34:04;12.60;99.90
57218;DHT22;43078;52.972;6.482;2022-11-11T14:39:37;12.60;99.90
57218;DHT22;43078;52.972;6.482;2022-11-11T14:42:40;12.60;99.90
57218;DHT22;43078;52.972;6.482;2022-11-11T14:44:49;12.60;99.90
57218;DHT22;43078;52.972;6.482;2022-11-11T14:49:52;12.60;99.90
57218;DHT22;43078;52.972;6.482;2022-11-11T15:00:32;12.60;99.90
57218;DHT22;43078;52.972;6.482;2022-11-11T15:03:11;12.60;99.90
57218;DHT22;43078;52.972;6.482;2022-11-11T15:05:52;12.60;99.90
57218;DHT22;43078;52.972;6.482;2022-11-11T15:13:56;12.60;99.90
57218;DHT22;43078;52.972;6.482;2022-11-11T15:22:42;12.60;99.90
57218;DHT22;43078;52.972;6.482;2022-11-11T15:25:36;12.60;99.90
57218;DHT22;43078;52.972;6.482;2022-11-11T15:31:11;12.60;99.90
57218;DHT22;43078;52.972;6.482;2022-11-11T15:39:05;12.60;99.90
57218;DHT22;43078;52.972;6.482;2022-11-11T15:41:36;12.60;99.90
57218;DHT22;43078;52.972;6.482;2022-11-11T15:44:07;12.60;99.90
57218;DHT22;43078;52.972;6.482;2022-11-11T15:46:39;12.60;99.90
57218;DHT22;43078;52.972;6.482;2022-11-11T15:49:14;12.60;99.90
57218;DHT22;43078;52.972;6.482;2022-11-11T15:51:59;12.60;99.90
57218;DHT22;43078;52.972;6.482;2022-11-11T15:54:30;12.50;99.90
57218;DHT22;43078;52.972;6.482;2022-11-11T15:56:56;12.60;99.90
57218;DHT22;43078;52.972;6.482;2022-11-11T15:59:24;12.60;99.90
57218;DHT22;43078;52.972;6.482;2022-11-11T16:01:50;12.50;99.90
57218;DHT22;43078;52.972;6.482;2022-11-11T16:04:21;12.50;99.90
57218;DHT22;43078;52.972;6.482;2022-11-11T16:06:52;12.50;99.90
57218;DHT22;43078;52.972;6.482;2022-11-11T16:09:36;12.50;99.90
57218;DHT22;43078;52.972;6.482;2022-11-11T16:12:09;12.50;99.90
57218;DHT22;43078;52.972;6.482;2022-11-11T16:14:45;12.50;99.90
57218;DHT22;43078;52.972;6.482;2022-11-11T16:17:14;12.50;99.90
57218;DHT22;43078;52.972;6.482;2022-11-11T16:19:42;12.50;99.90
57218;DHT22;43078;52.972;6.482;2022-11-11T16:22:13;12.50;99.90
57218;DHT22;43078;52.972;6.482;2022-11-11T16:24:41;12.50;99.90
57218;DHT22;43078;52.972;6.482;2022-11-11T16:27:31;12.50;99.90
57218;DHT22;43078;52.972;6.482;2022-11-11T16:30:31;12.40;99.90
57218;DHT22;43078;52.972;6.482;2022-11-11T16:32:58;12.40;99.90
57218;DHT22;43078;52.972;6.482;2022-11-11T16:35:50;12.40;99.90
57218;DHT22;43078;52.972;6.482;2022-11-11T16:38:40;12.40;99.90
57218;DHT22;43078;52.972;6.482;2022-11-11T16:41:46;12.40;99.90
57218;DHT22;43078;52.972;6.482;2022-11-11T16:47:43;12.40;99.90
57218;DHT22;43078;52.972;6.482;2022-11-11T16:50:22;12.50;99.90
57218;DHT22;43078;52.972;6.482;2022-11-11T16:53:04;12.50;99.90
57218;DHT22;43078;52.972;6.482;2022-11-11T16:55:45;12.40;99.90
57218;DHT22;43078;52.972;6.482;2022-11-11T16:58:19;12.50;99.90
57218;DHT22;43078;52.972;6.482;2022-11-11T17:00:45;12.50;99.90
57218;DHT22;43078;52.972;6.482;2022-11-11T17:03:20;12.40;99.90
57218;DHT22;43078;52.972;6.482;2022-11-11T17:06:03;12.50;99.90
57218;DHT22;43078;52.972;6.482;2022-11-11T17:08:41;12.40;99.90
57218;DHT22;43078;52.972;6.482;2022-11-11T17:13:52;12.40;99.90
57218;DHT22;43078;52.972;6.482;2022-11-11T17:16:18;12.40;99.90
57218;DHT22;43078;52.972;6.482;2022-11-11T17:18:44;12.40;99.90
57218;DHT22;43078;52.972;6.482;2022-11-11T17:21:11;12.40;99.90
57218;DHT22;43078;52.972;6.482;2022-11-11T17:23:36;12.40;99.90
57218;DHT22;43078;52.972;6.482;2022-11-11T17:26:02;12.40;99.90
57218;DHT22;43078;52.972;6.482;2022-11-11T17:28:33;12.40;99.90
57218;DHT22;43078;52.972;6.482;2022-11-11T17:31:07;12.40;99.90
57218;DHT22;43078;52.972;6.482;2022-11-11T17:33:33;12.40;99.90
57218;DHT22;43078;52.972;6.482;2022-11-11T17:35:59;12.40;99.90
57218;DHT22;43078;52.972;6.482;2022-11-11T17:38:27;12.40;99.90
57218;DHT22;43078;52.972;6.482;2022-11-11T17:40:52;12.30;99.90
57218;DHT22;43078;52.972;6.482;2022-11-11T17:43:18;12.30;99.90
57218;DHT22;43078;52.972;6.482;2022-11-11T17:45:44;12.40;99.90
57218;DHT22;43078;52.972;6.482;2022-11-11T17:48:10;12.30;99.90
57218;DHT22;43078;52.972;6.482;2022-11-11T17:50:37;12.30;99.90
57218;DHT22;43078;52.972;6.482;2022-11-11T17:53:04;12.30;99.90
57218;DHT22;43078;52.972;6.482;2022-11-11T17:55:31;12.30;99.90
57218;DHT22;43078;52.972;6.482;2022-11-11T17:57:57;12.30;99.90
57218;DHT22;43078;52.972;6.482;2022-11-11T18:00:23;12.30;99.90
57218;DHT22;43078;52.972;6.482;2022-11-11T18:02:49;12.30;99.90
57218;DHT22;43078;52.972;6.482;2022-11-11T18:05:15;12.30;99.90
57218;DHT22;43078;52.972;6.482;2022-11-11T18:07:40;12.20;99.90
57218;DHT22;43078;52.972;6.482;2022-11-11T18:10:07;12.20;99.90
57218;DHT22;43078;52.972;6.482;2022-11-11T18:12:33;12.20;99.90
57218;DHT22;43078;52.972;6.482;2022-11-11T18:14:59;12.20;99.90
57218;DHT22;43078;52.972;6.482;2022-11-11T18:17:25;12.20;99.90
57218;DHT22;43078;52.972;6.482;2022-11-11T18:19:50;12.10;99.90
57218;DHT22;43078;52.972;6.482;2022-11-11T18:22:16;12.10;99.90
57218;DHT22;43078;52.972;6.482;2022-11-11T18:24:41;12.10;99.90
57218;DHT22;43078;52.972;6.482;2022-11-11T18:27:07;12.10;99.90
57218;DHT22;43078;52.972;6.482;2022-11-11T18:29:33;12.10;99.90
57218;DHT22;43078;52.972;6.482;2022-11-11T18:32:11;12.00;99.90
57218;DHT22;43078;52.972;6.482;2022-11-11T18:34:43;12.00;99.90
57218;DHT22;43078;52.972;6.482;2022-11-11T18:37:15;12.00;99.90
57218;DHT22;43078;52.972;6.482;2022-11-11T18:39:47;11.90;99.90